Startpagina
METAR-TAF:

METAR-TAF

Vliegvelden :

Wittering, Engeland

breedte: 52-37N, lengte: 000-28W, hoogte: 84 m

Actueel weer

Dit bericht is 40 minuten geleden gemaakt, om 01:50 UTC
Wind 4 kt uit het zuiden
Temperatuur 17°C
Vochtigheid 72%
Druk 1018 hPa
Zicht 10 km of meer

METAR: EGXT 260150Z AUTO 18004KT 9999 NCD 17/12 Q1018

Tijdstip: 03:30 (02:30 UTC)


TAF: ontbreekt

Waarnemingen en weersverwachtingen van meer dan 4000 vliegvelden (METAR en TAF).

De beschikbare stations zijn de gele en rode punten op de kaart.

Ga met uw muis naar het station om de naam te zien.

Klik dan om waarnemingen en weersverwachtingen te zien.

kaart wijzigen: klik op de groene knoppen met een zwart kruis om in te zoomen, op de groene knop met een streepje om uit te zoomen of op de groene pijlen voor aangrenzende kaarten.


METAR-TAF: